createdAt,value
2022-08-07T00:02:40.823Z,29.00
2022-08-07T00:07:18.966Z,29.45
2022-08-07T00:12:20.966Z,29.90
2022-08-07T00:17:22.998Z,30.58
2022-08-07T00:22:35.334Z,30.98
2022-08-07T00:27:52.995Z,30.84
2022-08-07T00:32:57.650Z,31.61
2022-08-07T00:38:00.750Z,31.63
2022-08-07T00:43:02.597Z,31.83
2022-08-07T00:48:09.181Z,32.39
2022-08-07T00:53:13.378Z,32.26
2022-08-07T00:58:15.229Z,32.44
2022-08-07T01:03:18.509Z,32.10
2022-08-07T01:08:20.592Z,32.50
2022-08-07T01:13:24.088Z,32.65
2022-08-07T01:18:27.396Z,33.18
2022-08-07T01:23:38.593Z,33.29
2022-08-07T01:28:48.285Z,33.60
2022-08-07T01:33:57.569Z,33.66
2022-08-07T01:39:09.796Z,33.46
2022-08-07T01:44:15.498Z,34.35
2022-08-07T01:49:22.205Z,33.89
2022-08-07T01:54:33.093Z,33.86
2022-08-07T01:59:47.282Z,34.34
2022-08-07T02:04:59.063Z,34.62
2022-08-07T02:10:06.602Z,34.94
2022-08-07T02:15:13.519Z,35.00
2022-08-07T02:20:23.303Z,34.70
2022-08-07T02:26:10.351Z,35.12
2022-08-07T02:30:54.290Z,34.68
2022-08-07T02:36:29.455Z,34.79
2022-08-07T02:41:21.721Z,35.45
2022-08-07T02:46:28.814Z,36.49
2022-08-07T02:51:49.648Z,35.63
2022-08-07T02:56:57.242Z,35.37
2022-08-07T03:02:01.310Z,34.66
2022-08-07T03:07:07.341Z,35.72
2022-08-07T03:12:22.707Z,35.47
2022-08-07T03:17:54.062Z,35.56
2022-08-07T03:22:59.931Z,35.78
2022-08-07T03:28:09.675Z,36.77
2022-08-07T03:33:25.154Z,36.86
2022-08-07T03:38:35.676Z,37.48
2022-08-07T03:43:56.809Z,37.24
2022-08-07T03:49:03.487Z,37.31
2022-08-07T03:54:36.412Z,37.16
2022-08-07T03:59:46.750Z,36.98
2022-08-07T04:05:00.450Z,38.16
2022-08-07T04:10:03.090Z,37.70
2022-08-07T04:15:05.605Z,37.07
2022-08-07T04:20:12.926Z,36.87
2022-08-07T04:25:18.430Z,36.99
2022-08-07T04:30:39.330Z,36.80
2022-08-07T04:35:54.730Z,36.73
2022-08-07T04:41:01.069Z,37.26
2022-08-07T04:46:29.577Z,37.07
2022-08-07T04:51:50.254Z,37.02
2022-08-07T04:58:15.790Z,37.38
2022-08-07T05:02:48.250Z,38.22
2022-08-07T05:08:05.555Z,38.58
2022-08-07T05:14:52.110Z,38.24
2022-08-07T05:18:55.141Z,39.36
2022-08-07T05:24:01.675Z,39.39
2022-08-07T05:29:07.290Z,39.46
2022-08-07T05:34:12.662Z,39.14
2022-08-07T05:40:13.409Z,39.65
2022-08-07T05:44:52.720Z,39.80
2022-08-07T05:50:06.745Z,40.02
2022-08-07T05:55:10.961Z,39.81
2022-08-07T06:00:18.205Z,40.65
2022-08-07T06:05:34.653Z,40.68
2022-08-07T06:10:43.032Z,41.60
2022-08-07T06:15:49.915Z,41.50
2022-08-07T06:22:14.277Z,42.42
2022-08-07T06:26:27.614Z,42.72
2022-08-07T06:31:46.789Z,42.82
2022-08-07T06:36:53.562Z,42.87
2022-08-07T06:42:10.595Z,42.76
2022-08-07T06:47:48.138Z,43.16
2022-08-07T06:52:57.129Z,43.38
2022-08-07T06:58:09.531Z,44.39
2022-08-07T07:03:26.447Z,44.54
2022-08-07T07:08:46.586Z,44.37
2022-08-07T07:13:58.673Z,43.73
2022-08-07T07:19:33.805Z,42.91
2022-08-07T07:24:27.311Z,42.78
2022-08-07T07:29:56.712Z,42.91
2022-08-07T07:34:58.339Z,43.03
2022-08-07T07:40:10.322Z,42.23
2022-08-07T07:45:19.259Z,41.49
2022-08-07T07:50:32.770Z,40.95
2022-08-07T07:55:54.471Z,40.38
2022-08-07T08:00:58.310Z,39.44
2022-08-07T08:06:00.733Z,39.05
2022-08-07T08:11:04.598Z,39.42
2022-08-07T08:16:07.207Z,38.68
2022-08-07T08:21:59.137Z,35.82
2022-08-07T08:27:09.338Z,37.00
2022-08-07T08:32:18.567Z,35.66
2022-08-07T08:38:01.657Z,34.57
2022-08-07T08:42:52.976Z,34.00
2022-08-07T08:48:28.283Z,33.86
2022-08-07T08:53:35.932Z,31.97
2022-08-07T08:58:54.447Z,28.60
2022-08-07T09:04:13.635Z,28.04
2022-08-07T09:09:57.176Z,27.25
2022-08-07T09:16:20.706Z,27.38
2022-08-07T09:21:03.852Z,24.11
2022-08-07T09:26:39.808Z,24.59
2022-08-07T09:32:02.674Z,23.20
2022-08-07T09:37:33.334Z,23.74
2022-08-07T09:43:18.679Z,22.07
2022-08-07T09:50:02.197Z,22.36
2022-08-07T09:54:46.813Z,21.13
2022-08-07T10:00:02.875Z,21.94
2022-08-07T10:05:59.061Z,21.30
2022-08-07T10:12:01.962Z,20.02
2022-08-07T10:17:01.014Z,19.71
2022-08-07T10:22:18.236Z,19.14
2022-08-07T10:28:08.949Z,18.57
2022-08-07T10:34:06.717Z,17.87
2022-08-07T10:39:25.703Z,17.97
2022-08-07T10:45:06.136Z,18.18
2022-08-07T10:50:15.435Z,17.38
2022-08-07T10:56:04.871Z,16.71
2022-08-07T11:01:25.559Z,17.11
2022-08-07T11:06:44.525Z,16.49
2022-08-07T11:11:52.118Z,16.85
2022-08-07T11:17:13.678Z,16.58
2022-08-07T11:22:51.932Z,15.30
2022-08-07T11:28:06.596Z,15.42
2022-08-07T11:33:19.539Z,15.90
2022-08-07T11:39:03.791Z,15.83
2022-08-07T11:44:20.890Z,16.74
2022-08-07T11:50:30.785Z,16.44
2022-08-07T11:55:13.000Z,15.27
2022-08-07T12:00:53.689Z,16.09
2022-08-07T12:06:39.808Z,15.57
2022-08-07T12:12:09.276Z,14.34
2022-08-07T12:17:20.369Z,15.76
2022-08-07T12:22:39.046Z,15.30
2022-08-07T12:28:09.546Z,16.08
2022-08-07T12:33:28.302Z,15.62
2022-08-07T12:38:42.917Z,16.13
2022-08-07T12:44:02.923Z,16.82
2022-08-07T12:50:00.427Z,17.21
2022-08-07T12:55:22.071Z,16.36
2022-08-07T13:01:08.051Z,16.46
2022-08-07T13:07:00.183Z,18.25
2022-08-07T13:12:41.436Z,17.01
2022-08-07T13:18:03.602Z,17.88
2022-08-07T13:24:01.409Z,17.33
2022-08-07T13:28:46.846Z,17.18
2022-08-07T13:34:33.059Z,18.05
2022-08-07T13:40:33.765Z,18.52
2022-08-07T13:46:06.905Z,17.38
2022-08-07T13:50:32.957Z,17.77
2022-08-07T13:55:46.950Z,18.19
2022-08-07T14:00:59.592Z,17.70
2022-08-07T14:06:12.431Z,17.40
2022-08-07T14:11:19.229Z,17.12
2022-08-07T14:16:32.056Z,16.11
2022-08-07T14:22:01.286Z,16.93
2022-08-07T14:28:09.460Z,16.64
2022-08-07T14:32:31.868Z,16.17
2022-08-07T14:37:38.971Z,16.35
2022-08-07T14:43:55.256Z,15.96
2022-08-07T14:48:04.436Z,16.25
2022-08-07T14:53:08.136Z,16.76
2022-08-07T15:09:03.361Z,15.72
2022-08-07T15:31:04.605Z,15.05
2022-08-07T15:36:08.308Z,14.74
2022-08-07T15:41:24.236Z,14.74
2022-08-07T15:52:02.547Z,15.71
2022-08-07T15:57:10.595Z,15.31
2022-08-07T16:02:40.154Z,15.73
2022-08-07T16:08:33.456Z,14.89
2022-08-07T16:13:59.611Z,15.48
2022-08-07T16:19:42.463Z,16.57
2022-08-07T16:24:55.959Z,15.88
2022-08-07T16:30:30.835Z,16.52
2022-08-07T16:36:19.703Z,15.87
2022-08-07T16:41:41.606Z,16.25
2022-08-07T16:52:59.617Z,15.61
2022-08-07T16:59:02.413Z,15.77
2022-08-07T17:04:50.949Z,15.89
2022-08-07T17:10:33.757Z,15.33
2022-08-07T17:15:58.720Z,15.42
2022-08-07T17:21:02.566Z,15.14
2022-08-07T17:26:50.930Z,16.99
2022-08-07T17:32:02.641Z,16.01
2022-08-07T17:38:04.961Z,16.44
2022-08-07T17:42:58.533Z,16.43
2022-08-07T17:48:02.865Z,18.52
2022-08-07T17:53:59.892Z,17.62
2022-08-07T17:58:38.787Z,17.98
2022-08-07T18:04:07.343Z,16.11
2022-08-07T18:09:09.934Z,16.94
2022-08-07T18:14:55.445Z,18.42
2022-08-07T18:21:06.462Z,18.06
2022-08-07T18:25:40.318Z,18.46
2022-08-07T18:30:49.952Z,18.44
2022-08-07T18:36:08.139Z,19.90
2022-08-07T18:41:20.708Z,18.63
2022-08-07T18:46:28.329Z,18.86
2022-08-07T18:52:38.702Z,18.91
2022-08-07T18:57:37.951Z,18.71
2022-08-07T19:03:11.518Z,21.68
2022-08-07T19:08:29.409Z,24.84
2022-08-07T19:13:46.226Z,19.29
2022-08-07T19:19:00.613Z,20.51
2022-08-07T19:24:06.566Z,21.19
2022-08-07T19:31:05.543Z,18.80
2022-08-07T19:34:34.022Z,19.13
2022-08-07T19:39:56.445Z,20.33
2022-08-07T19:45:08.532Z,19.79
2022-08-07T19:50:43.981Z,20.16
2022-08-07T19:55:57.472Z,20.50
2022-08-07T20:00:57.244Z,20.79
2022-08-07T20:06:02.495Z,21.16
2022-08-07T20:11:15.087Z,22.20
2022-08-07T20:16:35.670Z,21.87
2022-08-07T20:21:47.229Z,21.95
2022-08-07T20:26:54.811Z,22.43
2022-08-07T20:31:57.793Z,22.18
2022-08-07T20:37:00.533Z,21.09
2022-08-07T20:42:09.288Z,20.79
2022-08-07T20:47:13.417Z,21.00
2022-08-07T20:52:21.106Z,21.34
2022-08-07T20:57:59.876Z,22.84
2022-08-07T21:03:05.697Z,22.79
2022-08-07T21:08:12.700Z,22.96
2022-08-07T21:13:18.676Z,23.46
2022-08-07T21:18:33.537Z,23.52
2022-08-07T21:23:53.943Z,25.01
2022-08-07T21:29:00.923Z,25.87
2022-08-07T21:34:35.181Z,25.30
2022-08-07T21:39:51.903Z,25.53
2022-08-07T21:46:05.351Z,26.30
2022-08-07T21:50:43.499Z,26.62
2022-08-07T21:55:50.949Z,27.14
2022-08-07T22:00:56.348Z,25.53
2022-08-07T22:06:02.642Z,25.67
2022-08-07T22:11:05.795Z,25.15
2022-08-07T22:16:43.042Z,25.24
2022-08-07T22:22:04.546Z,25.36
2022-08-07T22:27:15.903Z,26.41
2022-08-07T22:32:42.357Z,26.21
2022-08-07T22:38:04.765Z,25.87
2022-08-07T22:43:15.771Z,25.64
2022-08-07T22:49:02.304Z,25.90
2022-08-07T22:54:24.808Z,25.26
2022-08-07T22:59:38.552Z,25.42
2022-08-07T23:04:58.452Z,25.14
2022-08-07T23:10:37.601Z,24.79
2022-08-07T23:16:06.647Z,25.21
2022-08-07T23:21:30.160Z,24.63
2022-08-07T23:26:59.226Z,25.18
2022-08-07T23:34:20.072Z,25.18
2022-08-07T23:38:01.646Z,25.50
2022-08-07T23:43:07.812Z,25.55
2022-08-07T23:48:50.604Z,25.39
2022-08-07T23:54:19.823Z,26.18
